createdAt,value
2023-03-07T00:01:59.565Z,31.87
2023-03-07T00:04:29.512Z,31.60
2023-03-07T00:06:59.962Z,31.94
2023-03-07T00:09:30.957Z,31.82
2023-03-07T00:12:01.509Z,31.82
2023-03-07T00:14:29.275Z,31.73
2023-03-07T00:16:56.773Z,32.18
2023-03-07T00:19:26.778Z,32.01
2023-03-07T00:21:54.042Z,32.14
2023-03-07T00:24:21.627Z,32.12
2023-03-07T00:26:49.471Z,31.85
2023-03-07T00:29:17.084Z,31.77
2023-03-07T00:31:49.332Z,32.05
2023-03-07T00:34:19.362Z,31.93
2023-03-07T00:36:49.147Z,31.90
2023-03-07T00:39:17.080Z,31.98
2023-03-07T00:41:44.583Z,31.90
2023-03-07T00:44:14.564Z,32.09
2023-03-07T00:46:44.581Z,31.94
2023-03-07T00:49:16.571Z,32.11
2023-03-07T00:51:46.563Z,32.01
2023-03-07T00:54:14.632Z,32.02
2023-03-07T00:56:44.686Z,31.91
2023-03-07T00:59:15.203Z,31.99
2023-03-07T01:01:45.960Z,31.81
2023-03-07T01:04:16.656Z,31.43
2023-03-07T01:06:44.316Z,31.63
2023-03-07T01:09:12.250Z,31.60
2023-03-07T01:11:45.706Z,31.70
2023-03-07T01:14:16.221Z,31.72
2023-03-07T01:16:43.804Z,31.60
2023-03-07T01:19:14.472Z,31.43
2023-03-07T01:21:46.701Z,31.45
2023-03-07T01:24:18.140Z,31.50
2023-03-07T01:26:49.259Z,31.71
2023-03-07T01:29:17.108Z,31.55
2023-03-07T01:31:47.167Z,31.36
2023-03-07T01:34:14.953Z,31.58
2023-03-07T01:36:45.755Z,31.40
2023-03-07T01:39:17.024Z,31.58
2023-03-07T01:41:55.757Z,31.67
2023-03-07T01:44:27.563Z,31.64
2023-03-07T01:46:58.077Z,31.66
2023-03-07T01:49:35.324Z,31.92
2023-03-07T01:52:10.302Z,31.57
2023-03-07T01:54:51.116Z,31.73
2023-03-07T01:57:34.256Z,31.73
2023-03-07T02:00:08.701Z,31.45
2023-03-07T02:03:01.871Z,31.53
2023-03-07T02:05:38.259Z,31.53
2023-03-07T02:08:21.325Z,31.44
2023-03-07T02:10:52.334Z,31.43
2023-03-07T02:13:25.586Z,31.25
2023-03-07T02:15:57.041Z,31.60
2023-03-07T02:18:32.865Z,31.49
2023-03-07T02:21:42.314Z,31.41
2023-03-07T02:24:25.232Z,31.34
2023-03-07T02:26:57.835Z,31.29
2023-03-07T02:29:28.640Z,31.48
2023-03-07T02:32:01.320Z,31.40
2023-03-07T02:34:32.305Z,31.43
2023-03-07T02:37:32.655Z,31.40
2023-03-07T02:40:10.226Z,31.56
2023-03-07T02:42:49.045Z,31.41
2023-03-07T02:45:22.005Z,31.52
2023-03-07T02:47:54.140Z,31.54
2023-03-07T02:50:23.860Z,31.11
2023-03-07T02:52:58.369Z,31.36
2023-03-07T02:55:28.598Z,31.30
2023-03-07T02:58:05.805Z,31.51
2023-03-07T03:00:37.847Z,31.24
2023-03-07T03:03:05.989Z,31.11
2023-03-07T03:05:36.085Z,31.30
2023-03-07T03:08:06.857Z,31.13
2023-03-07T03:10:36.663Z,31.03
2023-03-07T03:13:04.380Z,31.09
2023-03-07T03:15:32.394Z,31.27
2023-03-07T03:18:05.916Z,31.16
2023-03-07T03:20:36.339Z,30.97
2023-03-07T03:23:04.728Z,30.93
2023-03-07T03:25:38.665Z,31.05
2023-03-07T03:28:13.390Z,31.18
2023-03-07T03:30:56.448Z,31.09
2023-03-07T03:33:29.233Z,31.26
2023-03-07T03:35:58.944Z,31.46
2023-03-07T03:38:33.422Z,31.28
2023-03-07T03:41:12.633Z,31.32
2023-03-07T03:43:40.819Z,31.28
2023-03-07T03:46:11.530Z,31.33
2023-03-07T03:48:42.611Z,31.30
2023-03-07T03:51:15.519Z,31.51
2023-03-07T03:53:48.013Z,31.11
2023-03-07T03:56:19.044Z,31.31
2023-03-07T03:58:53.400Z,31.03
2023-03-07T04:01:23.553Z,31.10
2023-03-07T04:03:53.261Z,31.17
2023-03-07T04:06:29.144Z,31.13
2023-03-07T04:09:00.286Z,31.00
2023-03-07T04:11:31.403Z,31.33
2023-03-07T04:14:04.215Z,31.22
2023-03-07T04:16:37.655Z,31.00
2023-03-07T04:19:13.108Z,30.85
2023-03-07T04:21:54.794Z,30.79
2023-03-07T04:24:22.790Z,30.91
2023-03-07T04:26:56.203Z,31.01
2023-03-07T04:29:26.801Z,31.17
2023-03-07T04:32:07.338Z,31.05
2023-03-07T04:34:36.575Z,30.93
2023-03-07T04:37:07.745Z,31.26
2023-03-07T04:39:37.767Z,31.34
2023-03-07T04:42:06.419Z,31.11
2023-03-07T04:44:38.233Z,31.06
2023-03-07T04:47:06.393Z,30.94
2023-03-07T04:49:36.911Z,31.21
2023-03-07T04:52:14.841Z,31.13
2023-03-07T04:54:49.200Z,30.98
2023-03-07T04:57:19.043Z,30.98
2023-03-07T04:59:46.692Z,31.10
2023-03-07T05:02:17.580Z,31.13
2023-03-07T05:04:47.873Z,31.21
2023-03-07T05:07:19.245Z,30.84
2023-03-07T05:09:46.972Z,30.96
2023-03-07T05:12:15.358Z,30.84
2023-03-07T05:14:43.150Z,30.81
2023-03-07T05:17:11.528Z,30.94
2023-03-07T05:19:44.096Z,30.95
2023-03-07T05:22:11.381Z,30.66
2023-03-07T05:24:41.987Z,30.84
2023-03-07T05:27:11.991Z,31.01
2023-03-07T05:29:39.742Z,30.92
2023-03-07T05:32:08.022Z,31.11
2023-03-07T05:34:41.807Z,31.13
2023-03-07T05:37:15.226Z,31.20
2023-03-07T05:39:42.968Z,30.97
2023-03-07T05:42:13.403Z,30.77
2023-03-07T05:44:44.724Z,30.91
2023-03-07T05:47:12.437Z,30.94
2023-03-07T05:49:42.648Z,31.01
2023-03-07T05:52:13.432Z,30.83
2023-03-07T05:54:41.496Z,31.17
2023-03-07T05:57:17.866Z,30.96
2023-03-07T05:59:45.660Z,31.11
2023-03-07T06:02:16.984Z,30.82
2023-03-07T06:04:46.861Z,31.07
2023-03-07T06:07:19.838Z,30.59
2023-03-07T06:09:50.325Z,30.69
2023-03-07T06:12:18.298Z,30.50
2023-03-07T06:14:48.994Z,30.82
2023-03-07T06:17:16.639Z,30.48
2023-03-07T06:19:46.745Z,30.32
2023-03-07T06:22:14.168Z,30.07
2023-03-07T06:24:44.412Z,30.52
2023-03-07T06:27:18.152Z,30.67
2023-03-07T06:29:48.766Z,30.09
2023-03-07T06:32:16.978Z,30.25
2023-03-07T06:34:46.983Z,30.28
2023-03-07T06:37:23.145Z,30.40
2023-03-07T06:39:56.654Z,30.31
2023-03-07T06:42:32.690Z,30.05
2023-03-07T06:45:06.135Z,30.66
2023-03-07T06:47:37.283Z,30.33
2023-03-07T06:50:09.202Z,30.36
2023-03-07T06:52:40.622Z,30.35
2023-03-07T06:55:22.015Z,30.35
2023-03-07T06:57:52.652Z,30.32
2023-03-07T07:00:29.112Z,30.98
2023-03-07T07:03:00.884Z,30.55
2023-03-07T07:05:35.850Z,30.66
2023-03-07T07:08:07.017Z,30.77
2023-03-07T07:10:37.367Z,29.98
2023-03-07T07:13:12.545Z,29.73
2023-03-07T07:15:45.041Z,29.67
2023-03-07T07:18:14.024Z,29.67
2023-03-07T07:20:55.799Z,29.64
2023-03-07T07:23:32.494Z,29.35
2023-03-07T07:26:09.912Z,29.08
2023-03-07T07:28:46.567Z,28.42
2023-03-07T07:31:17.433Z,28.77
2023-03-07T07:33:46.672Z,28.92
2023-03-07T07:36:17.983Z,28.96
2023-03-07T07:38:55.343Z,28.97
2023-03-07T07:41:26.523Z,29.20
2023-03-07T07:43:57.622Z,28.59
2023-03-07T07:46:34.501Z,28.73
2023-03-07T07:49:03.927Z,28.13
2023-03-07T07:51:31.882Z,28.38
2023-03-07T07:54:03.147Z,28.69
2023-03-07T07:56:36.755Z,27.42
2023-03-07T07:59:14.132Z,27.42
2023-03-07T08:01:44.711Z,27.73
2023-03-07T08:04:15.185Z,28.42
2023-03-07T08:06:47.646Z,26.73
2023-03-07T08:09:18.440Z,26.92
2023-03-07T08:11:48.708Z,27.10
2023-03-07T08:14:22.535Z,27.47
2023-03-07T08:16:57.780Z,27.72
2023-03-07T08:19:28.926Z,28.18
2023-03-07T08:21:59.656Z,28.79
2023-03-07T08:24:40.672Z,28.26
2023-03-07T08:27:11.758Z,28.47
2023-03-07T08:29:39.638Z,29.57
2023-03-07T08:32:12.100Z,29.83
2023-03-07T08:34:41.298Z,30.00
2023-03-07T08:37:15.548Z,30.06
2023-03-07T08:39:43.565Z,30.05
2023-03-07T08:42:11.435Z,29.90
2023-03-07T08:44:47.505Z,30.24
2023-03-07T08:47:21.175Z,30.05
2023-03-07T08:49:56.146Z,30.56
2023-03-07T08:52:26.597Z,29.97
2023-03-07T08:54:58.043Z,30.07
2023-03-07T08:57:25.853Z,30.21
2023-03-07T08:59:53.624Z,30.26
2023-03-07T09:02:23.972Z,30.26
2023-03-07T09:04:56.483Z,29.16
2023-03-07T09:07:29.993Z,29.35
2023-03-07T09:10:07.735Z,28.48
2023-03-07T09:12:42.588Z,28.12
2023-03-07T09:15:16.094Z,27.92
2023-03-07T09:17:43.753Z,27.21
2023-03-07T09:20:17.719Z,26.88
2023-03-07T09:22:51.846Z,26.95
2023-03-07T09:25:22.236Z,27.03
2023-03-07T09:27:55.958Z,27.18
2023-03-07T09:30:28.546Z,27.96
2023-03-07T09:32:58.351Z,27.66
2023-03-07T09:35:34.631Z,27.37
2023-03-07T09:38:05.454Z,27.50
2023-03-07T09:40:34.218Z,26.94
2023-03-07T09:43:21.975Z,26.57
2023-03-07T09:46:21.014Z,27.26
2023-03-07T09:49:41.250Z,26.99
2023-03-07T09:52:26.899Z,27.31
2023-03-07T09:55:19.369Z,26.90
2023-03-07T09:58:07.197Z,27.47
2023-03-07T10:00:42.797Z,27.33
2023-03-07T10:03:31.668Z,27.14
2023-03-07T10:06:23.239Z,27.99
2023-03-07T10:09:00.874Z,28.25
2023-03-07T10:11:34.341Z,28.43
2023-03-07T10:14:26.874Z,28.36
2023-03-07T10:17:28.155Z,27.87
2023-03-07T10:20:35.921Z,28.18
2023-03-07T10:23:18.611Z,28.31
2023-03-07T10:26:12.231Z,28.31
2023-03-07T10:28:44.100Z,28.49
2023-03-07T10:31:29.289Z,28.87
2023-03-07T10:33:58.652Z,28.21
2023-03-07T10:36:42.371Z,28.74
2023-03-07T10:39:48.977Z,28.56
2023-03-07T10:42:24.978Z,28.44
2023-03-07T10:44:56.114Z,28.46
2023-03-07T10:47:32.166Z,28.77
2023-03-07T10:50:29.215Z,29.10
2023-03-07T10:52:59.108Z,28.50
2023-03-07T10:55:38.677Z,29.33
2023-03-07T10:58:23.435Z,29.21
2023-03-07T11:01:20.914Z,29.79
2023-03-07T11:04:22.645Z,29.42
2023-03-07T11:07:04.143Z,29.56
2023-03-07T11:09:37.789Z,29.59
2023-03-07T11:12:05.345Z,29.17
2023-03-07T11:14:51.462Z,29.60
2023-03-07T11:17:27.688Z,29.40
2023-03-07T11:19:59.004Z,29.81
2023-03-07T11:22:36.753Z,29.74
2023-03-07T11:25:14.509Z,29.65
2023-03-07T11:27:55.846Z,29.87
2023-03-07T11:30:29.874Z,30.72
2023-03-07T11:33:20.041Z,30.61
2023-03-07T11:36:04.810Z,30.87
2023-03-07T11:38:38.472Z,30.65
2023-03-07T11:41:38.416Z,30.89
2023-03-07T11:44:30.030Z,31.16
2023-03-07T11:47:06.890Z,30.68
2023-03-07T11:49:53.191Z,30.73
2023-03-07T11:53:01.900Z,31.14
2023-03-07T11:55:36.150Z,31.28
2023-03-07T11:58:44.454Z,31.63
2023-03-07T12:01:17.886Z,31.33
2023-03-07T12:04:21.051Z,31.76
2023-03-07T12:07:06.812Z,31.60
2023-03-07T12:09:45.665Z,31.67
2023-03-07T12:12:50.613Z,31.96
2023-03-07T12:15:31.248Z,31.52
2023-03-07T12:18:20.076Z,31.17
2023-03-07T12:21:13.497Z,31.54
2023-03-07T12:23:55.680Z,31.44
2023-03-07T12:26:37.657Z,31.36
2023-03-07T12:29:33.111Z,31.61
2023-03-07T12:32:12.495Z,31.78
2023-03-07T12:34:51.186Z,31.72
2023-03-07T12:37:28.491Z,31.80
2023-03-07T12:40:06.966Z,31.51
2023-03-07T12:42:55.752Z,31.38
2023-03-07T12:45:43.494Z,31.33
2023-03-07T12:48:24.905Z,31.69
2023-03-07T12:51:19.990Z,31.41
2023-03-07T12:54:08.813Z,31.57
2023-03-07T12:56:54.489Z,31.53
2023-03-07T12:59:29.657Z,31.23
2023-03-07T13:02:08.496Z,31.49
2023-03-07T13:04:42.754Z,31.35
2023-03-07T13:07:21.258Z,31.19
2023-03-07T13:09:55.019Z,31.47
2023-03-07T13:12:35.157Z,31.37
2023-03-07T13:15:08.603Z,31.51
2023-03-07T13:17:36.553Z,31.55
2023-03-07T13:20:19.190Z,31.44
2023-03-07T13:22:46.728Z,31.60
2023-03-07T13:25:22.505Z,31.90
2023-03-07T13:27:53.691Z,31.62
2023-03-07T13:30:27.044Z,31.80
2023-03-07T13:33:07.478Z,31.97
2023-03-07T13:35:42.672Z,31.74
2023-03-07T13:38:41.507Z,31.94
2023-03-07T13:42:06.114Z,31.88
2023-03-07T13:44:46.666Z,32.20
2023-03-07T13:47:46.450Z,32.22
2023-03-07T13:50:43.390Z,32.18
2023-03-07T13:53:20.180Z,32.06
2023-03-07T13:56:00.405Z,32.28
2023-03-07T13:58:38.611Z,32.16
2023-03-07T14:01:30.469Z,31.94
2023-03-07T14:04:13.901Z,32.50
2023-03-07T14:06:53.417Z,32.08
2023-03-07T14:09:31.540Z,31.99
2023-03-07T14:12:15.375Z,32.12
2023-03-07T14:14:55.206Z,32.22
2023-03-07T14:17:25.962Z,31.94
2023-03-07T14:20:22.173Z,32.08
2023-03-07T14:23:27.304Z,32.19
2023-03-07T14:26:12.701Z,32.00
2023-03-07T14:29:00.590Z,31.87
2023-03-07T14:31:57.819Z,32.34
2023-03-07T14:34:39.218Z,32.12
2023-03-07T14:37:19.717Z,32.29
2023-03-07T14:40:00.310Z,32.40
2023-03-07T14:43:06.408Z,32.41
2023-03-07T14:45:49.966Z,31.96
2023-03-07T14:48:29.582Z,32.13
2023-03-07T14:51:02.005Z,32.28
2023-03-07T14:53:34.195Z,32.25
2023-03-07T14:56:06.985Z,32.45
2023-03-07T14:58:53.835Z,32.37
2023-03-07T15:01:22.430Z,32.25
2023-03-07T15:03:59.178Z,32.18
2023-03-07T15:06:31.071Z,32.37
2023-03-07T15:09:00.646Z,32.03
2023-03-07T15:11:37.476Z,32.11
2023-03-07T15:14:27.250Z,32.46
2023-03-07T15:17:03.791Z,32.30
2023-03-07T15:19:50.116Z,32.23
2023-03-07T15:22:27.868Z,32.51
2023-03-07T15:24:59.525Z,32.44
2023-03-07T15:27:35.156Z,32.12
2023-03-07T15:30:30.167Z,32.29
2023-03-07T15:33:09.692Z,32.05
2023-03-07T15:35:42.497Z,32.32
2023-03-07T15:38:23.323Z,32.21
2023-03-07T15:40:51.222Z,32.25
2023-03-07T15:43:25.159Z,32.27
2023-03-07T15:46:06.029Z,32.25
2023-03-07T15:48:54.342Z,32.58
2023-03-07T15:51:29.999Z,32.54
2023-03-07T15:54:21.881Z,32.74
2023-03-07T15:56:59.592Z,32.75
2023-03-07T15:59:43.106Z,32.76
2023-03-07T16:03:14.836Z,33.04
2023-03-07T16:05:49.649Z,32.87
2023-03-07T16:08:20.604Z,32.85
2023-03-07T16:11:00.343Z,32.72
2023-03-07T16:13:44.448Z,32.70
2023-03-07T16:16:25.807Z,32.43
2023-03-07T16:18:57.542Z,33.01
2023-03-07T16:21:31.676Z,32.87
2023-03-07T16:24:00.290Z,33.03
2023-03-07T16:26:28.439Z,33.14
2023-03-07T16:29:07.515Z,32.74
2023-03-07T16:31:38.199Z,32.86
2023-03-07T16:34:12.891Z,33.23
2023-03-07T16:36:43.196Z,32.98
2023-03-07T16:39:14.495Z,32.98
2023-03-07T16:41:48.543Z,32.46
2023-03-07T16:44:21.268Z,32.54
2023-03-07T16:47:04.013Z,32.61
2023-03-07T16:49:40.378Z,32.40
2023-03-07T16:52:13.242Z,32.13
2023-03-07T16:54:44.150Z,32.33
2023-03-07T16:57:18.220Z,32.41
2023-03-07T16:59:51.060Z,32.56
2023-03-07T17:02:24.425Z,32.86
2023-03-07T17:04:54.398Z,32.47
2023-03-07T17:07:27.779Z,32.46
2023-03-07T17:09:58.535Z,32.55
2023-03-07T17:12:26.527Z,32.23
2023-03-07T17:14:56.804Z,32.28
2023-03-07T17:17:33.821Z,32.39
2023-03-07T17:20:01.451Z,32.09
2023-03-07T17:22:40.238Z,32.27
2023-03-07T17:25:24.745Z,32.08
2023-03-07T17:28:02.795Z,32.01
2023-03-07T17:30:35.983Z,32.38
2023-03-07T17:33:04.470Z,32.68
2023-03-07T17:35:37.000Z,32.61
2023-03-07T17:38:10.727Z,32.53
2023-03-07T17:40:41.385Z,32.47
2023-03-07T17:43:12.304Z,32.44
2023-03-07T17:45:40.376Z,32.41
2023-03-07T17:48:07.637Z,32.35
2023-03-07T17:50:49.933Z,32.30
2023-03-07T17:53:17.608Z,32.29
2023-03-07T17:55:44.946Z,32.17
2023-03-07T17:58:15.030Z,32.07
2023-03-07T18:00:45.587Z,32.05
2023-03-07T18:03:13.267Z,32.22
2023-03-07T18:05:47.115Z,32.14
2023-03-07T18:08:15.552Z,31.90
2023-03-07T18:10:43.481Z,32.19
2023-03-07T18:13:15.350Z,32.25
2023-03-07T18:15:49.063Z,32.41
2023-03-07T18:18:19.488Z,31.79
2023-03-07T18:21:09.286Z,32.18
2023-03-07T18:23:37.434Z,32.26
2023-03-07T18:26:08.871Z,31.97
2023-03-07T18:28:41.357Z,31.99
2023-03-07T18:31:15.311Z,32.24
2023-03-07T18:33:43.677Z,32.27
2023-03-07T18:36:14.709Z,32.24
2023-03-07T18:38:47.805Z,32.28
2023-03-07T18:41:24.128Z,32.29
2023-03-07T18:43:54.591Z,32.14
2023-03-07T18:46:30.667Z,32.43
2023-03-07T18:49:04.207Z,32.25
2023-03-07T18:51:39.603Z,32.36
2023-03-07T18:54:10.396Z,32.31
2023-03-07T18:56:38.652Z,32.23
2023-03-07T18:59:15.211Z,32.50
2023-03-07T19:01:44.548Z,32.30
2023-03-07T19:04:20.271Z,32.44
2023-03-07T19:06:53.895Z,32.25
2023-03-07T19:09:29.082Z,31.93
2023-03-07T19:12:01.461Z,32.13
2023-03-07T19:14:30.065Z,32.02
2023-03-07T19:17:02.526Z,32.13
2023-03-07T19:19:30.548Z,32.21
2023-03-07T19:21:58.247Z,32.12
2023-03-07T19:24:31.776Z,32.07
2023-03-07T19:27:05.204Z,31.99
2023-03-07T19:29:35.203Z,31.90
2023-03-07T19:32:06.145Z,31.90
2023-03-07T19:34:36.799Z,32.46
2023-03-07T19:37:05.832Z,31.94
2023-03-07T19:39:37.231Z,31.93
2023-03-07T19:42:10.992Z,31.84
2023-03-07T19:44:38.948Z,31.81
2023-03-07T19:47:09.643Z,31.78
2023-03-07T19:49:37.857Z,31.77
2023-03-07T19:52:11.171Z,31.67
2023-03-07T19:54:48.950Z,31.76
2023-03-07T19:57:23.784Z,31.75
2023-03-07T19:59:57.486Z,31.63
2023-03-07T20:02:26.349Z,31.58
2023-03-07T20:04:57.861Z,31.75
2023-03-07T20:07:30.180Z,31.40
2023-03-07T20:10:04.086Z,31.43
2023-03-07T20:12:33.335Z,31.83
2023-03-07T20:15:09.003Z,31.74
2023-03-07T20:17:39.392Z,31.77
2023-03-07T20:20:11.049Z,31.84
2023-03-07T20:22:40.506Z,31.72
2023-03-07T20:25:09.639Z,31.65
2023-03-07T20:27:43.136Z,31.89
2023-03-07T20:30:12.467Z,32.03
2023-03-07T20:32:48.462Z,31.82
2023-03-07T20:35:20.402Z,32.00
2023-03-07T20:37:53.357Z,31.85
2023-03-07T20:40:21.785Z,31.74
2023-03-07T20:42:55.130Z,31.98
2023-03-07T20:45:23.532Z,31.88
2023-03-07T20:47:54.742Z,31.91
2023-03-07T20:50:23.141Z,31.75
2023-03-07T20:52:51.980Z,31.91
2023-03-07T20:55:23.560Z,31.86
2023-03-07T20:57:54.765Z,31.97
2023-03-07T21:00:30.066Z,31.79
2023-03-07T21:03:05.733Z,31.77
2023-03-07T21:05:37.852Z,31.80
2023-03-07T21:08:06.479Z,31.75
2023-03-07T21:10:38.956Z,31.86
2023-03-07T21:13:10.113Z,31.59
2023-03-07T21:15:43.608Z,31.68
2023-03-07T21:18:13.937Z,31.74
2023-03-07T21:20:44.210Z,31.81
2023-03-07T21:23:16.911Z,31.64
2023-03-07T21:25:45.988Z,31.68
2023-03-07T21:28:17.403Z,31.52
2023-03-07T21:30:52.245Z,31.54
2023-03-07T21:33:20.640Z,31.60
2023-03-07T21:35:51.132Z,31.38
2023-03-07T21:38:22.074Z,31.49
2023-03-07T21:40:55.998Z,31.39
2023-03-07T21:43:24.686Z,31.49
2023-03-07T21:45:57.252Z,31.60
2023-03-07T21:48:31.053Z,31.49
2023-03-07T21:50:58.636Z,31.33
2023-03-07T21:53:29.711Z,31.50
2023-03-07T21:56:06.582Z,31.50
2023-03-07T21:58:37.678Z,31.41
2023-03-07T22:01:18.604Z,31.46
2023-03-07T22:04:00.708Z,31.50
2023-03-07T22:06:30.770Z,31.56
2023-03-07T22:09:01.465Z,31.43
2023-03-07T22:11:31.247Z,31.33
2023-03-07T22:13:59.901Z,31.41
2023-03-07T22:16:28.829Z,31.42
2023-03-07T22:18:57.075Z,31.46
2023-03-07T22:21:26.715Z,31.64
2023-03-07T22:24:00.825Z,31.55
2023-03-07T22:26:32.053Z,31.42
2023-03-07T22:29:06.407Z,31.46
2023-03-07T22:31:37.983Z,31.59
2023-03-07T22:34:06.056Z,31.69
2023-03-07T22:36:36.545Z,31.60
2023-03-07T22:39:07.505Z,31.66
2023-03-07T22:41:35.964Z,31.56
2023-03-07T22:44:05.579Z,31.62
2023-03-07T22:46:33.944Z,31.67
2023-03-07T22:49:03.839Z,31.61
2023-03-07T22:51:31.973Z,31.67
2023-03-07T22:54:08.878Z,31.36
2023-03-07T22:56:37.127Z,31.48
2023-03-07T22:59:06.168Z,31.58
2023-03-07T23:01:34.187Z,31.58
2023-03-07T23:04:10.356Z,31.32
2023-03-07T23:06:41.438Z,31.53
2023-03-07T23:09:09.837Z,31.56
2023-03-07T23:11:46.492Z,31.41
2023-03-07T23:14:15.315Z,31.26
2023-03-07T23:16:43.597Z,31.50
2023-03-07T23:19:14.168Z,31.28
2023-03-07T23:21:49.898Z,31.29
2023-03-07T23:24:20.237Z,31.40
2023-03-07T23:26:49.220Z,31.24
2023-03-07T23:29:22.735Z,31.19
2023-03-07T23:31:50.967Z,30.99
2023-03-07T23:34:24.566Z,31.19
2023-03-07T23:37:01.094Z,31.29
2023-03-07T23:39:33.851Z,31.42
2023-03-07T23:42:06.357Z,31.29
2023-03-07T23:44:35.008Z,31.12
2023-03-07T23:47:05.853Z,31.57
2023-03-07T23:49:37.163Z,31.28
2023-03-07T23:52:10.330Z,31.39
2023-03-07T23:54:41.775Z,31.29
2023-03-07T23:57:12.800Z,31.51
2023-03-07T23:59:43.868Z,31.48
